This is the latest recevied weather packets stored in our database for station/object N5ATR. If no packets are shown the sender has not sent any weather packets the latest 10 day(s).
| Time | Temp. | Humidity | Pressure | Rain* | Wind** | Luminosity | Snow |
|---|---|---|---|---|---|---|---|
| 1787921086 | 14.44° C | 68% | 1027.2 hPa | 0 mm | - | 6 W/m² | - |
| 1787920786 | 14.44° C | 66% | 1027.3 hPa | 0 mm | - | 4 W/m² | - |
| 1787920486 | 15° C | 65% | 1027.3 hPa | 0 mm | - | 2 W/m² | - |
| 1787920183 | 15.56° C | 65% | 1027.1 hPa | 0 mm | - | 1 W/m² | - |
| 1787919878 | 15.56° C | 63% | 1027 hPa | 0 mm | - | 0 W/m² | - |
| 1787919577 | 15.56° C | 63% | 1027 hPa | 0 mm | - | 0 W/m² | - |
| 1787919273 | 13.89° C | 67% | 1027.3 hPa | 0 mm | - | 0 W/m² | - |
| 1787918968 | 13.33° C | 72% | 1027.1 hPa | 0 mm | - | 0 W/m² | - |
| 1787918663 | 13.33° C | 72% | 1027 hPa | 0 mm | - | 0 W/m² | - |
| 1787918361 | 13.89° C | 72% | 1027 hPa | 0 mm | - | 0 W/m² | - |
| 1787918056 | 13.89° C | 72% | 1026.7 hPa | 0 mm | - | 0 W/m² | - |
| 1787917751 | 13.33° C | 73% | 1026.7 hPa | 0 mm | - | 0 W/m² | - |
| 1787917447 | 13.33° C | 73% | 1026.3 hPa | 0 mm | - | 0 W/m² | - |
| 1787917143 | 13.89° C | 73% | 1026.3 hPa | 0 mm | - | 0 W/m² | - |
| 1787916837 | 14.44° C | 70% | 1026.5 hPa | 0 mm | - | 0 W/m² | - |
| 1787916536 | 14.44° C | 69% | 1026.7 hPa | 0 mm | - | 0 W/m² | - |
| 1787916232 | 13.89° C | 71% | 1026.8 hPa | 0 mm | - | 0 W/m² | - |
| 1787915927 | 13.89° C | 70% | 1026.6 hPa | 0 mm | - | 0 W/m² | - |
| 1787915623 | 13.89° C | 72% | 1026.7 hPa | 0 mm | - | 0 W/m² | - |
| 1787915322 | 13.89° C | 71% | 1026.8 hPa | 0 mm | - | 0 W/m² | - |
| 1787915017 | 13.89° C | 70% | 1026.7 hPa | 0 mm | - | 0 W/m² | - |
| 1787914715 | 14.44° C | 69% | 1026.8 hPa | 0 mm | - | 0 W/m² | - |
| 1787914410 | 13.89° C | 71% | 1026.8 hPa | 0 mm | - | 0 W/m² | - |
| 1787914105 | 13.89° C | 71% | 1027 hPa | 0 mm | - | 0 W/m² | - |
| 1787913804 | 13.89° C | 73% | 1027.1 hPa | 0 mm | - | 0 W/m² | - |
* Rain latest hour (hover to see other rain measurements)
** Current wind speed in m/s (hover to see current wind gust speed)